createdAt,value
2022-12-07T00:00:09.925Z,6.77
2022-12-07T00:02:38.665Z,7.10
2022-12-07T00:05:08.030Z,6.20
2022-12-07T00:07:37.908Z,6.07
2022-12-07T00:10:08.664Z,6.77
2022-12-07T00:12:37.162Z,6.33
2022-12-07T00:15:06.700Z,5.90
2022-12-07T00:17:35.732Z,6.40
2022-12-07T00:20:05.017Z,6.90
2022-12-07T00:22:33.902Z,6.00
2022-12-07T00:25:03.937Z,6.03
2022-12-07T00:27:32.601Z,6.63
2022-12-07T00:30:01.442Z,5.57
2022-12-07T00:32:30.282Z,6.53
2022-12-07T00:34:58.780Z,6.13
2022-12-07T00:37:27.273Z,5.63
2022-12-07T00:39:55.874Z,6.40
2022-12-07T00:42:25.779Z,5.83
2022-12-07T00:44:54.275Z,6.00
2022-12-07T00:47:22.799Z,5.40
2022-12-07T00:49:51.461Z,5.93
2022-12-07T00:52:20.052Z,7.10
2022-12-07T00:54:48.524Z,5.77
2022-12-07T00:57:17.223Z,6.70
2022-12-07T00:59:47.153Z,5.40
2022-12-07T01:02:15.824Z,6.03
2022-12-07T01:04:44.344Z,6.50
2022-12-07T01:07:12.869Z,6.70
2022-12-07T01:09:41.343Z,6.50
2022-12-07T01:12:09.872Z,5.50
2022-12-07T01:14:38.345Z,6.50
2022-12-07T01:17:08.335Z,7.07
2022-12-07T01:19:36.929Z,6.60
2022-12-07T01:22:05.480Z,7.63
2022-12-07T01:24:33.971Z,6.63
2022-12-07T01:27:02.419Z,8.40
2022-12-07T01:29:30.915Z,7.70
2022-12-07T01:31:59.370Z,7.50
2022-12-07T01:34:31.021Z,8.40
2022-12-07T01:36:59.980Z,7.53
2022-12-07T01:39:28.517Z,6.87
2022-12-07T01:41:57.253Z,8.13
2022-12-07T01:44:27.793Z,7.40
2022-12-07T01:46:58.292Z,6.37
2022-12-07T01:49:37.806Z,7.83
2022-12-07T01:52:17.707Z,7.93
2022-12-07T01:54:49.769Z,6.50
2022-12-07T01:57:20.361Z,7.67
2022-12-07T01:59:52.911Z,7.57
2022-12-07T02:02:29.358Z,8.60
2022-12-07T02:05:02.003Z,8.20
2022-12-07T02:07:35.110Z,7.73
2022-12-07T02:10:16.447Z,6.87
2022-12-07T02:12:47.028Z,7.63
2022-12-07T02:15:15.982Z,7.90
2022-12-07T02:17:53.896Z,6.53
2022-12-07T02:20:33.472Z,7.77
2022-12-07T02:23:56.174Z,7.90
2022-12-07T02:27:23.937Z,8.47
2022-12-07T02:30:03.679Z,8.90
2022-12-07T02:32:46.457Z,8.30
2022-12-07T02:35:22.345Z,7.50
2022-12-07T02:38:03.110Z,7.67
2022-12-07T02:40:38.536Z,7.70
2022-12-07T02:43:14.395Z,8.47
2022-12-07T02:45:48.005Z,7.53
2022-12-07T02:48:20.926Z,7.23
2022-12-07T02:50:52.650Z,7.60
2022-12-07T02:53:35.512Z,8.03
2022-12-07T02:56:15.696Z,7.53
2022-12-07T02:58:59.289Z,8.40
2022-12-07T03:01:45.206Z,7.47
2022-12-07T03:04:34.424Z,7.97
2022-12-07T03:07:15.120Z,9.03
2022-12-07T03:09:52.787Z,8.10
2022-12-07T03:12:31.582Z,8.40
2022-12-07T03:15:10.627Z,7.10
2022-12-07T03:17:46.448Z,8.17
2022-12-07T03:20:21.144Z,8.17
2022-12-07T03:22:50.779Z,7.00
2022-12-07T03:25:20.279Z,8.50
2022-12-07T03:27:56.963Z,8.40
2022-12-07T03:30:33.363Z,8.50
2022-12-07T03:33:11.293Z,8.77
2022-12-07T03:35:47.153Z,8.03
2022-12-07T03:38:24.076Z,7.43
2022-12-07T03:41:02.770Z,7.43
2022-12-07T03:43:32.611Z,7.77
2022-12-07T03:46:21.281Z,7.80
2022-12-07T03:49:01.491Z,7.73
2022-12-07T03:51:41.855Z,7.97
2022-12-07T03:54:18.591Z,7.67
2022-12-07T03:56:49.588Z,7.67
2022-12-07T03:59:19.445Z,7.47
2022-12-07T04:01:55.649Z,8.00
2022-12-07T04:04:27.208Z,8.77
2022-12-07T04:06:56.311Z,8.33
2022-12-07T04:09:25.929Z,7.57
2022-12-07T04:11:54.500Z,9.03
2022-12-07T04:14:23.090Z,7.63
2022-12-07T04:16:54.739Z,6.87
2022-12-07T04:19:28.507Z,7.53
2022-12-07T04:21:57.703Z,7.30
2022-12-07T04:24:27.178Z,8.60
2022-12-07T04:26:56.650Z,7.87
2022-12-07T04:29:25.779Z,7.80
2022-12-07T04:31:54.787Z,10.07
2022-12-07T04:34:23.466Z,10.23
2022-12-07T04:36:53.573Z,8.60
2022-12-07T04:39:25.666Z,9.47
2022-12-07T04:41:54.614Z,8.73
2022-12-07T04:44:25.025Z,8.20
2022-12-07T04:46:55.052Z,9.10
2022-12-07T04:49:24.056Z,9.20
2022-12-07T04:51:54.571Z,9.53
2022-12-07T04:54:23.458Z,10.13
2022-12-07T04:56:52.001Z,9.80
2022-12-07T04:59:20.748Z,10.07
2022-12-07T05:01:49.445Z,9.20
2022-12-07T05:04:18.794Z,9.47
2022-12-07T05:06:47.607Z,8.67
2022-12-07T05:09:17.447Z,9.83
2022-12-07T05:11:46.053Z,11.50
2022-12-07T05:14:18.706Z,9.30
2022-12-07T05:16:50.667Z,10.63
2022-12-07T05:19:20.371Z,11.30
2022-12-07T05:21:49.322Z,10.70
2022-12-07T05:24:19.917Z,10.50
2022-12-07T05:26:48.750Z,10.10
2022-12-07T05:29:19.093Z,9.97
2022-12-07T05:31:48.017Z,9.70
2022-12-07T05:34:17.094Z,8.70
2022-12-07T05:36:45.839Z,11.63
2022-12-07T05:39:14.524Z,10.17
2022-12-07T05:42:01.812Z,10.50
2022-12-07T05:44:30.561Z,9.45
2022-12-07T05:46:59.716Z,9.45
2022-12-07T05:49:28.228Z,9.65
2022-12-07T05:51:56.816Z,10.07
2022-12-07T05:54:25.467Z,10.00
2022-12-07T05:56:55.779Z,11.77
2022-12-07T05:59:23.697Z,10.18
2022-12-07T06:01:53.064Z,10.23
2022-12-07T06:04:23.039Z,11.35
2022-12-07T06:06:51.785Z,11.32
2022-12-07T06:09:21.308Z,11.60
2022-12-07T06:12:04.052Z,11.63
2022-12-07T06:14:34.366Z,13.93
2022-12-07T06:17:03.319Z,10.65
2022-12-07T06:19:32.072Z,10.55
2022-12-07T06:22:01.544Z,11.85
2022-12-07T06:24:30.245Z,12.85
2022-12-07T06:26:59.527Z,12.55
2022-12-07T06:29:28.173Z,10.90
2022-12-07T06:31:58.303Z,14.75
2022-12-07T06:34:29.077Z,12.23
2022-12-07T06:36:57.632Z,12.65
2022-12-07T06:39:29.396Z,12.10
2022-12-07T06:41:58.958Z,13.38
2022-12-07T06:44:27.899Z,11.15
2022-12-07T06:47:31.967Z,11.95
2022-12-07T06:49:51.915Z,11.70
2022-12-07T06:52:20.632Z,13.30
2022-12-07T06:54:49.138Z,13.60
2022-12-07T06:57:17.856Z,14.32
2022-12-07T06:59:46.542Z,11.38
2022-12-07T07:02:16.679Z,11.77
2022-12-07T07:04:45.533Z,12.30
2022-12-07T07:07:14.247Z,13.30
2022-12-07T07:09:43.161Z,16.23
2022-12-07T07:12:11.807Z,13.32
2022-12-07T07:14:40.433Z,13.85
2022-12-07T07:17:09.034Z,13.77
2022-12-07T07:19:39.112Z,13.83
2022-12-07T07:22:07.838Z,15.40
2022-12-07T07:24:36.531Z,17.95
2022-12-07T07:27:05.644Z,18.58
2022-12-07T07:29:34.269Z,15.93
2022-12-07T07:32:06.679Z,16.97
2022-12-07T07:34:36.198Z,15.50
2022-12-07T07:37:07.313Z,16.07
2022-12-07T07:39:36.186Z,15.37
2022-12-07T07:42:05.254Z,17.10
2022-12-07T07:44:36.334Z,16.17
2022-12-07T07:47:05.815Z,14.13
2022-12-07T07:49:34.703Z,15.63
2022-12-07T07:52:03.361Z,16.20
2022-12-07T07:54:33.257Z,15.43
2022-12-07T07:57:03.710Z,15.20
2022-12-07T07:59:34.338Z,18.37
2022-12-07T08:02:03.049Z,19.00
2022-12-07T08:04:32.000Z,16.00
2022-12-07T08:07:00.772Z,18.23
2022-12-07T08:09:29.485Z,15.47
2022-12-07T08:12:00.153Z,15.13
2022-12-07T08:14:30.876Z,15.63
2022-12-07T08:17:00.516Z,15.20
2022-12-07T08:19:29.117Z,16.43
2022-12-07T08:21:58.399Z,16.37
2022-12-07T08:24:27.228Z,16.47
2022-12-07T08:26:55.837Z,17.03
2022-12-07T08:29:26.180Z,15.10
2022-12-07T08:31:54.980Z,16.53
2022-12-07T08:34:23.699Z,15.10
2022-12-07T08:36:52.382Z,14.10
2022-12-07T08:39:31.352Z,13.80
2022-12-07T08:42:01.094Z,15.13
2022-12-07T08:44:31.255Z,14.90
2022-12-07T08:47:04.583Z,17.03
2022-12-07T08:49:38.713Z,13.87
2022-12-07T08:52:07.779Z,14.23
2022-12-07T08:54:39.903Z,12.73
2022-12-07T08:57:09.467Z,12.93
2022-12-07T08:59:40.739Z,13.30
2022-12-07T09:02:09.789Z,14.23
2022-12-07T09:04:39.959Z,13.23
2022-12-07T09:07:08.947Z,12.93
2022-12-07T09:09:38.817Z,13.10
2022-12-07T09:12:08.435Z,12.10
2022-12-07T09:14:38.410Z,11.77
2022-12-07T09:17:10.106Z,12.50
2022-12-07T09:19:39.911Z,11.13
2022-12-07T09:22:10.838Z,11.97
2022-12-07T09:24:39.543Z,11.23
2022-12-07T09:27:08.255Z,10.47
2022-12-07T09:29:39.794Z,10.50
2022-12-07T09:32:11.647Z,10.63
2022-12-07T09:34:41.030Z,10.57
2022-12-07T09:37:10.209Z,8.93
2022-12-07T09:39:44.792Z,10.00
2022-12-07T09:42:31.591Z,8.77
2022-12-07T09:45:03.746Z,9.70
2022-12-07T09:47:35.540Z,10.07
2022-12-07T09:50:09.690Z,8.83
2022-12-07T09:52:39.481Z,8.20
2022-12-07T09:55:16.248Z,8.60
2022-12-07T09:57:45.899Z,9.20
2022-12-07T10:00:19.888Z,8.70
2022-12-07T10:02:55.836Z,9.37
2022-12-07T10:05:29.872Z,8.37
2022-12-07T10:07:58.961Z,7.87
2022-12-07T10:10:38.161Z,9.30
2022-12-07T10:13:10.113Z,10.13
2022-12-07T10:16:06.330Z,9.13
2022-12-07T10:18:38.675Z,9.10
2022-12-07T10:21:21.603Z,7.60
2022-12-07T10:24:05.348Z,7.10
2022-12-07T10:26:37.148Z,7.20
2022-12-07T10:29:20.301Z,8.50
2022-12-07T10:31:59.881Z,9.07
2022-12-07T10:34:36.447Z,7.50
2022-12-07T10:37:21.873Z,8.70
2022-12-07T10:39:53.774Z,8.20
2022-12-07T10:42:26.399Z,8.33
2022-12-07T10:45:16.819Z,8.03
2022-12-07T10:47:57.912Z,6.93
2022-12-07T10:50:54.794Z,7.33
2022-12-07T10:54:01.685Z,7.70
2022-12-07T10:57:04.264Z,7.70
2022-12-07T11:00:02.331Z,8.00
2022-12-07T11:03:25.328Z,6.87
2022-12-07T11:06:11.414Z,5.97
2022-12-07T11:09:04.938Z,7.37
2022-12-07T11:11:40.670Z,7.03
2022-12-07T11:14:27.258Z,6.40
2022-12-07T11:17:05.006Z,6.20
2022-12-07T11:20:04.566Z,5.80
2022-12-07T11:22:51.466Z,6.50
2022-12-07T11:25:32.813Z,5.13
2022-12-07T11:28:26.994Z,6.13
2022-12-07T11:31:11.435Z,5.77
2022-12-07T11:33:49.096Z,6.57
2022-12-07T11:36:40.172Z,5.70
2022-12-07T11:39:28.679Z,5.70
2022-12-07T11:42:09.028Z,6.00
2022-12-07T11:44:52.760Z,5.77
2022-12-07T11:47:36.963Z,5.20
2022-12-07T11:50:26.107Z,6.20
2022-12-07T11:53:03.449Z,5.83
2022-12-07T11:55:44.270Z,5.67
2022-12-07T11:58:46.974Z,6.13
2022-12-07T12:01:45.082Z,5.90
2022-12-07T12:04:32.861Z,5.27
2022-12-07T12:10:00.624Z,5.50
2022-12-07T12:16:50.016Z,5.80
2022-12-07T12:19:34.584Z,6.13
2022-12-07T12:22:15.659Z,6.33
2022-12-07T12:24:50.362Z,5.00
2022-12-07T12:27:28.728Z,5.87
2022-12-07T12:30:01.204Z,6.27
2022-12-07T12:32:41.595Z,6.23
2022-12-07T12:35:32.723Z,5.60
2022-12-07T12:38:35.738Z,4.67
2022-12-07T12:41:08.076Z,5.00
2022-12-07T12:43:54.138Z,5.80
2022-12-07T12:46:58.591Z,4.80
2022-12-07T12:49:46.962Z,7.47
2022-12-07T12:52:59.320Z,6.10
2022-12-07T12:56:23.095Z,6.77
2022-12-07T12:59:28.508Z,5.73
2022-12-07T13:02:17.358Z,6.40
2022-12-07T13:04:58.692Z,7.20
2022-12-07T13:08:02.963Z,6.43
2022-12-07T13:10:43.954Z,6.70
2022-12-07T13:13:36.056Z,6.80
2022-12-07T13:16:42.739Z,7.37
2022-12-07T13:20:02.787Z,6.53
2022-12-07T13:22:56.529Z,5.43
2022-12-07T13:25:57.064Z,6.13
2022-12-07T13:28:39.946Z,6.93
2022-12-07T13:31:38.401Z,6.07
2022-12-07T13:34:34.630Z,6.50
2022-12-07T13:37:13.113Z,6.73
2022-12-07T13:39:50.653Z,6.47
2022-12-07T13:42:28.032Z,6.30
2022-12-07T13:44:58.643Z,6.00
2022-12-07T13:47:38.743Z,6.93
2022-12-07T13:50:28.254Z,7.80
2022-12-07T13:52:59.022Z,6.10
2022-12-07T13:55:29.756Z,5.80
2022-12-07T13:57:59.000Z,6.30
2022-12-07T14:00:31.763Z,7.10
2022-12-07T14:03:03.535Z,8.00
2022-12-07T14:05:37.524Z,6.03
2022-12-07T14:08:23.372Z,6.13
2022-12-07T14:10:59.666Z,5.80
2022-12-07T14:13:35.062Z,5.60
2022-12-07T14:16:06.051Z,4.83
2022-12-07T14:18:41.920Z,5.67
2022-12-07T14:21:21.305Z,6.20
2022-12-07T14:24:11.676Z,7.13
2022-12-07T14:26:41.685Z,5.23
2022-12-07T14:29:35.510Z,6.13
2022-12-07T14:32:23.761Z,6.00
2022-12-07T14:35:02.380Z,6.33
2022-12-07T14:37:34.090Z,6.60
2022-12-07T14:40:03.448Z,7.30
2022-12-07T14:42:33.445Z,5.90
2022-12-07T14:45:03.055Z,7.10
2022-12-07T14:50:22.753Z,5.80
2022-12-07T14:55:52.996Z,6.63
2022-12-07T14:58:22.682Z,5.80
2022-12-07T15:00:51.465Z,6.00
2022-12-07T15:03:20.101Z,5.57
2022-12-07T15:05:49.080Z,6.40
2022-12-07T15:08:19.905Z,5.80
2022-12-07T15:10:49.250Z,6.10
2022-12-07T15:13:35.576Z,5.20
2022-12-07T15:16:05.306Z,5.30
2022-12-07T15:18:36.171Z,5.63
2022-12-07T15:21:05.010Z,6.53
2022-12-07T15:23:36.963Z,6.27
2022-12-07T15:26:07.088Z,6.03
2022-12-07T15:28:36.225Z,5.87
2022-12-07T15:31:30.702Z,5.97
2022-12-07T15:33:53.735Z,4.90
2022-12-07T15:36:27.128Z,6.13
2022-12-07T15:39:13.784Z,5.53
2022-12-07T15:41:43.681Z,5.93
2022-12-07T15:44:34.361Z,5.47
2022-12-07T15:47:06.394Z,5.13
2022-12-07T15:49:35.081Z,5.60
2022-12-07T15:52:03.736Z,5.90
2022-12-07T15:54:34.208Z,5.87
2022-12-07T15:57:03.098Z,5.47
2022-12-07T15:59:31.964Z,5.40
2022-12-07T16:02:00.897Z,5.93
2022-12-07T16:04:30.452Z,6.30
2022-12-07T16:06:59.506Z,7.30
2022-12-07T16:09:28.043Z,6.40
2022-12-07T16:11:58.475Z,6.90
2022-12-07T16:14:27.607Z,5.90
2022-12-07T16:16:56.323Z,6.43
2022-12-07T16:19:24.945Z,5.90
2022-12-07T16:21:53.678Z,7.07
2022-12-07T16:24:22.325Z,6.80
2022-12-07T16:26:51.537Z,6.47
2022-12-07T16:29:24.359Z,6.97
2022-12-07T16:31:54.065Z,6.43
2022-12-07T16:34:22.605Z,7.90
2022-12-07T16:37:09.007Z,5.93
2022-12-07T16:39:38.812Z,6.97
2022-12-07T16:42:07.377Z,5.90
2022-12-07T16:44:37.474Z,6.63
2022-12-07T16:47:06.662Z,7.40
2022-12-07T16:49:35.145Z,7.37
2022-12-07T16:52:19.274Z,6.80
2022-12-07T16:54:50.208Z,7.00
2022-12-07T16:57:23.110Z,6.43
2022-12-07T16:59:54.464Z,6.80
2022-12-07T17:02:23.279Z,5.80
2022-12-07T17:04:53.557Z,6.47
2022-12-07T17:07:22.212Z,6.83
2022-12-07T17:09:51.219Z,6.53
2022-12-07T17:12:20.012Z,6.70
2022-12-07T17:15:07.376Z,6.83
2022-12-07T17:17:37.505Z,8.23
2022-12-07T17:20:07.441Z,7.03
2022-12-07T17:22:36.192Z,7.57
2022-12-07T17:25:05.604Z,6.90
2022-12-07T17:27:34.914Z,7.53
2022-12-07T17:30:03.753Z,7.30
2022-12-07T17:32:32.579Z,6.90
2022-12-07T17:35:03.162Z,7.83
2022-12-07T17:37:33.740Z,8.53
2022-12-07T17:40:02.385Z,8.13
2022-12-07T17:42:41.127Z,7.63
2022-12-07T17:45:16.773Z,8.67
2022-12-07T17:47:48.233Z,7.87
2022-12-07T17:50:38.310Z,7.87
2022-12-07T17:53:11.985Z,9.50
2022-12-07T17:56:12.116Z,8.20
2022-12-07T17:58:30.222Z,8.27
2022-12-07T18:00:58.989Z,9.40
2022-12-07T18:03:27.785Z,9.50
2022-12-07T18:05:57.749Z,10.23
2022-12-07T18:08:26.464Z,9.53
2022-12-07T18:11:00.286Z,10.53
2022-12-07T18:13:38.369Z,10.10
2022-12-07T18:16:11.087Z,9.30
2022-12-07T18:18:40.597Z,8.50
2022-12-07T18:21:16.189Z,9.00
2022-12-07T18:23:50.342Z,10.27
2022-12-07T18:26:22.025Z,11.17
2022-12-07T18:28:55.326Z,10.60
2022-12-07T18:31:24.254Z,10.60
2022-12-07T18:33:56.474Z,10.40
2022-12-07T18:36:36.581Z,11.60
2022-12-07T18:39:07.860Z,11.30
2022-12-07T18:41:41.997Z,10.53
2022-12-07T18:44:16.936Z,10.90
2022-12-07T18:46:47.441Z,11.13
2022-12-07T18:49:19.711Z,10.20
2022-12-07T18:51:51.076Z,8.57
2022-12-07T18:54:19.734Z,10.43
2022-12-07T18:56:50.441Z,10.73
2022-12-07T18:59:36.841Z,12.53
2022-12-07T19:02:08.897Z,11.23
2022-12-07T19:04:39.043Z,13.10
2022-12-07T19:07:14.303Z,13.77
2022-12-07T19:09:43.077Z,12.20
2022-12-07T19:12:14.625Z,10.90
2022-12-07T19:14:47.721Z,10.50
2022-12-07T19:17:16.435Z,10.33
2022-12-07T19:19:48.956Z,9.90
2022-12-07T19:22:26.052Z,9.20
2022-12-07T19:24:56.536Z,11.27
2022-12-07T19:27:25.647Z,17.20
2022-12-07T19:29:58.411Z,10.70
2022-12-07T19:32:28.632Z,10.40
2022-12-07T19:35:00.038Z,10.40
2022-12-07T19:37:30.231Z,9.60
2022-12-07T19:39:58.925Z,9.40
2022-12-07T19:42:27.653Z,9.93
2022-12-07T19:44:56.267Z,9.90
2022-12-07T19:47:25.197Z,9.73
2022-12-07T19:49:54.818Z,9.07
2022-12-07T19:52:23.703Z,14.03
2022-12-07T19:54:53.613Z,11.77
2022-12-07T19:57:22.217Z,9.83
2022-12-07T19:59:50.904Z,9.13
2022-12-07T20:02:19.642Z,9.40
2022-12-07T20:04:48.653Z,10.00
2022-12-07T20:07:17.279Z,9.07
2022-12-07T20:09:45.877Z,9.50
2022-12-07T20:12:33.385Z,9.23
2022-12-07T20:15:04.482Z,8.73
2022-12-07T20:17:34.649Z,8.90
2022-12-07T20:20:03.509Z,10.60
2022-12-07T20:22:32.210Z,8.60
2022-12-07T20:25:01.109Z,8.93
2022-12-07T20:27:32.235Z,9.70
2022-12-07T20:30:00.991Z,9.40
2022-12-07T20:32:29.753Z,9.50
2022-12-07T20:34:59.051Z,12.47
2022-12-07T20:37:32.264Z,11.00
2022-12-07T20:40:04.982Z,10.13
2022-12-07T20:42:39.118Z,8.87
2022-12-07T20:45:11.096Z,10.33
2022-12-07T20:47:40.539Z,8.63
2022-12-07T20:50:19.586Z,9.17
2022-12-07T20:52:58.885Z,9.50
2022-12-07T20:55:36.113Z,9.13
2022-12-07T20:58:07.094Z,8.70
2022-12-07T21:00:37.411Z,9.67
2022-12-07T21:03:07.001Z,8.93
2022-12-07T21:05:50.953Z,10.97
2022-12-07T21:08:20.916Z,10.20
2022-12-07T21:10:50.712Z,9.57
2022-12-07T21:13:24.615Z,10.90
2022-12-07T21:15:55.623Z,9.20
2022-12-07T21:18:24.400Z,10.05
2022-12-07T21:20:53.470Z,9.93
2022-12-07T21:23:22.209Z,10.80
2022-12-07T21:25:52.854Z,11.30
2022-12-07T21:28:23.044Z,11.73
2022-12-07T21:31:12.537Z,11.40
2022-12-07T21:33:40.767Z,10.77
2022-12-07T21:36:11.908Z,11.95
2022-12-07T21:38:40.710Z,11.20
2022-12-07T21:41:14.072Z,10.95
2022-12-07T21:43:45.319Z,12.20
2022-12-07T21:46:15.407Z,13.80
2022-12-07T21:48:50.439Z,11.07
2022-12-07T21:51:21.054Z,11.55
2022-12-07T21:53:51.199Z,10.98
2022-12-07T21:56:23.892Z,11.73
2022-12-07T21:58:56.275Z,13.52
2022-12-07T22:01:28.286Z,12.48
2022-12-07T22:03:59.065Z,10.98
2022-12-07T22:06:28.832Z,12.85
2022-12-07T22:09:12.093Z,12.20
2022-12-07T22:11:41.532Z,13.70
2022-12-07T22:14:26.363Z,13.20
2022-12-07T22:16:54.837Z,13.00
2022-12-07T22:19:23.848Z,12.65
2022-12-07T22:21:52.403Z,13.20
2022-12-07T22:24:21.009Z,15.95
2022-12-07T22:26:49.581Z,12.10
2022-12-07T22:29:20.986Z,13.63
2022-12-07T22:31:53.787Z,13.65
2022-12-07T22:34:23.379Z,14.25
2022-12-07T22:36:52.206Z,14.73
2022-12-07T22:39:20.861Z,17.38
2022-12-07T22:41:49.649Z,16.50
2022-12-07T22:44:19.657Z,14.95
2022-12-07T22:46:48.522Z,14.90
2022-12-07T22:49:17.066Z,16.42
2022-12-07T22:51:45.720Z,15.43
2022-12-07T22:54:17.180Z,15.05
2022-12-07T22:56:46.884Z,15.50
2022-12-07T22:59:15.888Z,15.32
2022-12-07T23:01:45.808Z,14.15
2022-12-07T23:04:14.339Z,14.15
2022-12-07T23:06:42.890Z,13.55
2022-12-07T23:09:14.469Z,14.95
2022-12-07T23:12:01.307Z,14.15
2022-12-07T23:14:33.573Z,13.05
2022-12-07T23:17:05.188Z,15.65
2022-12-07T23:19:35.300Z,16.23
2022-12-07T23:22:03.905Z,14.70
2022-12-07T23:24:32.527Z,14.13
2022-12-07T23:27:01.131Z,15.77
2022-12-07T23:29:29.652Z,16.75
2022-12-07T23:31:58.228Z,13.57
2022-12-07T23:34:28.207Z,14.05
2022-12-07T23:36:56.759Z,16.17
2022-12-07T23:39:25.886Z,15.75
2022-12-07T23:41:54.442Z,15.13
2022-12-07T23:44:22.977Z,17.30
2022-12-07T23:46:51.692Z,16.70
2022-12-07T23:49:20.276Z,16.23
2022-12-07T23:51:50.202Z,16.38
2022-12-07T23:54:18.704Z,15.20
2022-12-07T23:56:47.225Z,15.37
2022-12-07T23:59:15.782Z,15.87
